Time;durP1;ratioP1;P1;durP2;ratioP2;P2;SDS_P1;SDS_P2;PMS_P1;PMS_P2;Temp;Humidity;BMP_temperature;BMP_pressure;BME280_temperature;BME280_humidity;BME280_pressure;Samples;Min_cycle;Max_cycle;Signal;HPM_P1;HPM_P2
2024/01/25 00:02:18;;;;;;;25.77;4.10;;;9.90;99.90;;;;;;4999397;28;20025;-66
2024/01/25 00:04:43;;;;;;;25.65;4.20;;;9.90;99.90;;;;;;5014800;28;20030;-66
2024/01/25 00:07:12;;;;;;;31.83;4.22;;;9.80;99.90;;;;;;4997947;28;20031;-67
2024/01/25 00:09:37;;;;;;;17.52;3.20;;;9.70;99.90;;;;;;4999324;28;20027;-66
2024/01/25 00:12:03;;;;;;;18.48;3.40;;;9.70;99.90;;;;;;4997263;28;20060;-66
2024/01/25 00:14:29;;;;;;;30.35;3.60;;;9.70;99.90;;;;;;4999069;28;20080;-66
2024/01/25 00:16:54;;;;;;;22.08;3.47;;;9.70;99.90;;;;;;4998839;28;20034;-66
2024/01/25 00:19:20;;;;;;;24.80;4.07;;;9.70;99.90;;;;;;5014441;28;20027;-66
2024/01/25 00:21:45;;;;;;;16.73;3.67;;;9.90;99.90;;;;;;4998334;28;20034;-67
2024/01/25 00:24:12;;;;;;;33.10;3.65;;;10.00;99.90;;;;;;4998611;28;20025;-67
2024/01/25 00:26:38;;;;;;;18.48;3.67;;;10.00;99.90;;;;;;4998505;28;20031;-66
2024/01/25 00:29:04;;;;;;;31.38;3.53;;;9.90;99.90;;;;;;4997767;28;20022;-66
2024/01/25 00:31:30;;;;;;;19.75;3.20;;;9.80;99.90;;;;;;4999050;28;20030;-67
2024/01/25 00:33:57;;;;;;;18.73;3.35;;;9.70;99.90;;;;;;5014282;28;20032;-66
2024/01/25 00:36:23;;;;;;;25.52;4.13;;;9.80;99.90;;;;;;4998359;28;20034;-66
2024/01/25 00:38:49;;;;;;;23.77;3.45;;;9.90;99.90;;;;;;4998344;28;20030;-67
2024/01/25 00:41:18;;;;;;;23.40;4.15;;;9.80;99.90;;;;;;4998262;28;20027;-67
2024/01/25 00:43:44;;;;;;;17.42;3.45;;;9.90;99.90;;;;;;4997309;28;20041;-66
2024/01/25 00:46:10;;;;;;;18.50;3.40;;;9.90;99.90;;;;;;4998271;28;20031;-66
2024/01/25 00:48:36;;;;;;;23.17;4.03;;;10.00;99.90;;;;;;4998150;28;20046;-67
2024/01/25 00:51:05;;;;;;;21.70;4.40;;;10.00;99.90;;;;;;4997974;28;20064;-67
2024/01/25 00:53:32;;;;;;;28.02;6.30;;;10.00;99.90;;;;;;4997655;28;20083;-66
2024/01/25 00:55:58;;;;;;;18.38;3.15;;;10.10;99.90;;;;;;4998396;28;20022;-66
2024/01/25 00:58:24;;;;;;;16.20;3.92;;;10.00;99.90;;;;;;4997940;28;20173;-67
2024/01/25 01:01:09;;;;;;;24.92;4.78;;;10.00;99.90;;;;;;4997944;28;20034;-67
2024/01/25 01:03:36;;;;;;;24.20;3.65;;;10.00;99.90;;;;;;4998280;28;20038;-66
2024/01/25 01:06:01;;;;;;;21.45;3.70;;;9.90;99.90;;;;;;5013440;28;20022;-66
2024/01/25 01:08:28;;;;;;;25.88;4.60;;;10.00;99.90;;;;;;4997965;28;20026;-66
2024/01/25 01:10:53;;;;;;;21.95;5.88;;;9.90;99.90;;;;;;4997355;28;20030;-67
2024/01/25 01:13:19;;;;;;;22.85;3.92;;;9.90;99.90;;;;;;4998140;28;20029;-66
2024/01/25 01:15:44;;;;;;;19.88;4.53;;;9.90;99.90;;;;;;5013307;28;20026;-66
2024/01/25 01:18:10;;;;;;;24.23;3.22;;;9.70;99.90;;;;;;4998167;28;20030;-66
2024/01/25 01:20:35;;;;;;;22.08;4.05;;;9.80;99.90;;;;;;5013075;28;20030;-66
2024/01/25 01:23:01;;;;;;;29.85;5.43;;;9.80;99.90;;;;;;4997697;28;20034;-67
2024/01/25 01:25:26;;;;;;;26.40;4.30;;;9.80;99.90;;;;;;4997586;28;20026;-66
2024/01/25 01:27:52;;;;;;;20.52;4.35;;;9.90;99.90;;;;;;5013076;28;20030;-67
2024/01/25 01:30:17;;;;;;;28.77;6.00;;;9.80;99.90;;;;;;5013157;28;20100;-66
2024/01/25 01:32:43;;;;;;;34.08;6.32;;;9.80;99.90;;;;;;4997708;28;20022;-66
2024/01/25 01:35:08;;;;;;;26.83;4.88;;;9.80;99.90;;;;;;4997536;28;20037;-66
2024/01/25 01:37:34;;;;;;;17.27;4.05;;;9.70;99.90;;;;;;5012856;28;20034;-67
2024/01/25 01:39:59;;;;;;;28.15;4.55;;;9.70;99.90;;;;;;4997518;28;20030;-66
2024/01/25 01:42:27;;;;;;;22.48;3.83;;;9.60;99.90;;;;;;4997586;28;20030;-67
2024/01/25 01:44:52;;;;;;;17.42;4.60;;;9.70;99.90;;;;;;5013016;28;20023;-67
2024/01/25 01:47:18;;;;;;;24.98;3.85;;;9.90;99.90;;;;;;4997896;28;20026;-67
2024/01/25 01:49:44;;;;;;;23.40;5.65;;;9.90;99.90;;;;;;4997758;28;20081;-67
2024/01/25 01:52:11;;;;;;;23.70;4.95;;;9.90;99.90;;;;;;4997733;28;20049;-67
2024/01/25 01:54:37;;;;;;;25.55;4.40;;;9.90;99.90;;;;;;4996631;28;20046;-66
2024/01/25 01:57:03;;;;;;;21.98;4.35;;;9.80;99.90;;;;;;5013167;28;20029;-66
2024/01/25 01:59:30;;;;;;;25.48;4.07;;;9.90;99.90;;;;;;5012791;28;20117;-67
2024/01/25 02:01:55;;;;;;;25.48;4.85;;;9.90;99.90;;;;;;4997487;28;20033;-66
2024/01/25 02:04:21;;;;;;;27.95;4.75;;;9.90;99.90;;;;;;5013131;28;20026;-67
2024/01/25 02:06:47;;;;;;;35.88;7.10;;;9.90;99.90;;;;;;4996444;28;20022;-66
2024/01/25 02:09:13;;;;;;;24.27;4.88;;;9.90;99.90;;;;;;5013357;28;20119;-67
2024/01/25 02:11:38;;;;;;;28.13;3.92;;;9.80;99.90;;;;;;5012987;28;20030;-66
2024/01/25 02:14:05;;;;;;;22.98;3.80;;;9.80;99.90;;;;;;5012781;28;20073;-66
2024/01/25 02:16:30;;;;;;;36.90;4.75;;;9.90;99.90;;;;;;5012515;28;20019;-67
2024/01/25 02:18:57;;;;;;;16.40;3.80;;;10.00;99.90;;;;;;4997597;28;20110;-67
2024/01/25 02:21:23;;;;;;;37.10;4.88;;;10.00;99.90;;;;;;4997224;28;20054;-67
2024/01/25 02:23:49;;;;;;;21.75;4.82;;;9.80;99.90;;;;;;4997195;28;20022;-66
2024/01/25 02:26:15;;;;;;;18.92;5.25;;;9.70;99.90;;;;;;5012581;28;20030;-66
2024/01/25 02:28:40;;;;;;;22.70;4.18;;;9.80;99.90;;;;;;5012645;28;20033;-67
2024/01/25 02:31:06;;;;;;;29.55;5.47;;;9.80;99.90;;;;;;5013358;28;20027;-67
2024/01/25 02:33:31;;;;;;;25.15;5.07;;;9.70;99.90;;;;;;5013414;28;20030;-66
2024/01/25 02:35:57;;;;;;;23.58;4.03;;;9.60;99.90;;;;;;5016666;28;20038;-66
2024/01/25 02:38:23;;;;;;;24.13;4.57;;;9.50;99.90;;;;;;5016105;28;20022;-66
2024/01/25 02:40:49;;;;;;;26.92;5.20;;;9.50;99.90;;;;;;5016209;28;20058;-66
2024/01/25 02:43:14;;;;;;;26.52;5.40;;;9.70;99.90;;;;;;5015995;28;20043;-66
2024/01/25 02:45:40;;;;;;;24.23;4.47;;;9.80;99.90;;;;;;5015924;28;20120;-66
2024/01/25 02:48:06;;;;;;;26.60;4.38;;;9.80;99.90;;;;;;5015808;28;20125;-66
2024/01/25 02:50:31;;;;;;;25.20;5.20;;;9.80;99.90;;;;;;5016760;28;20026;-67
2024/01/25 02:52:58;;;;;;;22.92;3.92;;;9.80;99.90;;;;;;5000369;28;20018;-66
2024/01/25 02:55:23;;;;;;;22.55;3.97;;;9.80;99.90;;;;;;5000477;28;20050;-66
2024/01/25 02:57:49;;;;;;;24.67;4.28;;;9.80;99.90;;;;;;5015589;28;20029;-66
2024/01/25 03:00:15;;;;;;;22.48;4.05;;;9.70;99.90;;;;;;5015941;28;20054;-66
2024/01/25 03:02:40;;;;;;;33.42;5.03;;;9.70;99.90;;;;;;4999625;28;20034;-67
2024/01/25 03:05:06;;;;;;;30.92;4.20;;;9.70;99.90;;;;;;5000418;28;20033;-67
2024/01/25 03:07:31;;;;;;;29.17;5.90;;;9.70;99.90;;;;;;5015841;28;20081;-66
2024/01/25 03:09:57;;;;;;;31.17;4.40;;;9.70;99.90;;;;;;5015467;28;20026;-66
2024/01/25 03:12:22;;;;;;;22.45;4.15;;;9.60;99.90;;;;;;5015505;28;20033;-67
2024/01/25 03:14:48;;;;;;;32.85;5.05;;;9.60;99.90;;;;;;5015444;28;20029;-67
2024/01/25 03:17:14;;;;;;;32.95;6.82;;;9.60;99.90;;;;;;4999009;28;20038;-67
2024/01/25 03:19:39;;;;;;;26.85;4.75;;;9.60;99.90;;;;;;4999476;28;20029;-66
2024/01/25 03:22:05;;;;;;;26.30;4.53;;;9.60;99.90;;;;;;4999927;28;20041;-66
2024/01/25 03:24:30;;;;;;;16.35;4.38;;;9.60;99.90;;;;;;4999796;28;20057;-67
2024/01/25 03:26:56;;;;;;;20.85;4.93;;;9.70;99.90;;;;;;4999240;28;20022;-66
2024/01/25 03:29:22;;;;;;;17.98;4.18;;;9.70;99.90;;;;;;5016160;28;20029;-66
2024/01/25 03:31:47;;;;;;;29.08;7.25;;;9.70;99.90;;;;;;5015047;28;20121;-66
2024/01/25 03:34:13;;;;;;;24.58;5.25;;;9.60;99.90;;;;;;4999834;28;20027;-66
2024/01/25 03:36:41;;;;;;;20.48;4.65;;;9.70;99.90;;;;;;5015266;28;20025;-66
2024/01/25 03:39:08;;;;;;;21.33;4.22;;;9.90;99.90;;;;;;4999856;28;20023;-66
2024/01/25 03:41:33;;;;;;;27.88;4.25;;;9.90;99.90;;;;;;4999532;28;20090;-66
2024/01/25 03:43:59;;;;;;;13.68;3.80;;;10.00;99.90;;;;;;4999351;28;20106;-67
2024/01/25 03:46:24;;;;;;;24.55;4.90;;;10.10;99.90;;;;;;4998164;28;20027;-67
2024/01/25 03:48:50;;;;;;;29.15;4.65;;;10.10;99.90;;;;;;5015898;28;20033;-66
2024/01/25 03:51:16;;;;;;;21.13;4.68;;;10.00;99.90;;;;;;5014710;28;20037;-66
2024/01/25 03:53:42;;;;;;;20.73;3.95;;;9.80;99.90;;;;;;4999493;28;20019;-67
2024/01/25 03:56:13;;;;;;;21.27;5.13;;;9.80;99.90;;;;;;4999507;28;20030;-66
2024/01/25 03:58:38;;;;;;;29.65;5.03;;;9.80;99.90;;;;;;4999544;28;20023;-67
2024/01/25 04:01:04;;;;;;;28.58;6.28;;;9.80;99.90;;;;;;4999017;28;20060;-66
2024/01/25 04:03:29;;;;;;;23.00;4.00;;;9.70;99.90;;;;;;4999217;28;20034;-67
2024/01/25 04:05:55;;;;;;;28.35;4.38;;;9.70;99.90;;;;;;4998957;28;20030;-67
2024/01/25 04:08:20;;;;;;;26.20;4.28;;;9.70;99.90;;;;;;5014761;28;20030;-66
2024/01/25 04:10:46;;;;;;;28.88;4.30;;;9.60;99.90;;;;;;5014404;28;20026;-67
2024/01/25 04:13:11;;;;;;;19.48;3.70;;;9.50;99.90;;;;;;5014574;28;20118;-66
2024/01/25 04:15:37;;;;;;;24.98;3.92;;;9.60;99.90;;;;;;4998068;28;20026;-66
2024/01/25 04:18:03;;;;;;;24.08;4.53;;;9.50;99.90;;;;;;5014326;28;20054;-67
2024/01/25 04:20:28;;;;;;;17.40;4.38;;;9.40;99.90;;;;;;5014261;28;20030;-67
2024/01/25 04:22:54;;;;;;;26.35;4.80;;;9.30;99.90;;;;;;5014450;28;20064;-66
2024/01/25 04:25:19;;;;;;;26.77;4.57;;;9.20;99.90;;;;;;5014989;28;20022;-66
2024/01/25 04:27:45;;;;;;;24.15;4.68;;;9.10;99.90;;;;;;5014456;28;20090;-66
2024/01/25 04:30:10;;;;;;;17.35;4.45;;;9.00;99.90;;;;;;4997545;28;20030;-66
2024/01/25 04:32:36;;;;;;;19.92;4.63;;;9.00;99.90;;;;;;4998741;28;20018;-66
2024/01/25 04:35:02;;;;;;;36.08;4.72;;;9.00;99.90;;;;;;4998561;28;20023;-66
2024/01/25 04:37:27;;;;;;;24.30;5.53;;;8.90;99.90;;;;;;4998411;28;20022;-66
2024/01/25 04:39:53;;;;;;;26.30;4.72;;;8.90;99.90;;;;;;5014110;28;20026;-66
2024/01/25 04:42:18;;;;;;;29.45;4.90;;;8.90;99.90;;;;;;5014103;28;20068;-66
2024/01/25 04:44:44;;;;;;;30.05;5.15;;;8.90;99.90;;;;;;5014270;28;20053;-66
2024/01/25 04:47:10;;;;;;;25.38;5.13;;;8.90;99.90;;;;;;5014600;28;20037;-66
2024/01/25 04:49:36;;;;;;;21.63;4.80;;;8.90;99.90;;;;;;5013692;28;20054;-66
2024/01/25 04:52:02;;;;;;;22.90;4.82;;;8.90;99.90;;;;;;4998524;28;20022;-66
2024/01/25 04:54:27;;;;;;;18.42;5.60;;;8.90;99.90;;;;;;5013627;28;20026;-66
2024/01/25 04:56:53;;;;;;;24.27;3.92;;;8.90;99.90;;;;;;5013508;28;20037;-66
2024/01/25 04:59:18;;;;;;;26.00;5.15;;;9.10;99.90;;;;;;5013342;28;20026;-66
2024/01/25 05:01:44;;;;;;;26.33;4.10;;;9.30;99.90;;;;;;4997593;28;20022;-66
2024/01/25 05:04:10;;;;;;;26.10;5.13;;;9.50;99.90;;;;;;5013563;28;20113;-66
2024/01/25 05:06:35;;;;;;;21.48;4.75;;;9.40;99.90;;;;;;5013351;28;20030;-66
2024/01/25 05:09:01;;;;;;;26.27;4.93;;;9.40;99.90;;;;;;5014042;28;20034;-66
2024/01/25 05:11:26;;;;;;;26.67;4.95;;;9.30;99.90;;;;;;5013400;28;20098;-66
2024/01/25 05:13:52;;;;;;;25.70;5.55;;;9.30;99.90;;;;;;5013506;28;20038;-67
2024/01/25 05:16:18;;;;;;;32.28;5.35;;;9.30;99.90;;;;;;5013389;28;20066;-66
2024/01/25 05:18:43;;;;;;;21.20;4.40;;;9.30;99.90;;;;;;5013347;28;20125;-66
2024/01/25 05:21:09;;;;;;;21.23;4.95;;;9.40;99.90;;;;;;5013578;28;20031;-66
2024/01/25 05:23:38;;;;;;;26.20;4.28;;;9.30;99.90;;;;;;5013635;28;20033;-66
2024/01/25 05:26:03;;;;;;;20.58;3.78;;;9.20;99.90;;;;;;5013454;28;20030;-66
2024/01/25 05:28:29;;;;;;;23.27;4.82;;;9.20;99.90;;;;;;5013840;28;20038;-67
2024/01/25 05:30:54;;;;;;;20.85;5.20;;;9.20;99.90;;;;;;5014026;28;20031;-67
2024/01/25 05:33:20;;;;;;;23.88;4.38;;;9.30;99.90;;;;;;5012994;28;20022;-66
2024/01/25 05:35:45;;;;;;;25.88;4.20;;;9.20;99.90;;;;;;5013155;28;20060;-66
2024/01/25 05:38:11;;;;;;;27.23;5.20;;;9.10;99.90;;;;;;5013355;28;20032;-66
2024/01/25 05:40:37;;;;;;;19.88;4.40;;;9.00;99.90;;;;;;5013143;28;20029;-66
2024/01/25 05:43:03;;;;;;;22.60;3.83;;;8.90;99.90;;;;;;5013110;28;20030;-66
2024/01/25 05:45:28;;;;;;;26.38;4.93;;;8.90;99.90;;;;;;5013275;28;20047;-66
2024/01/25 05:47:54;;;;;;;24.50;4.10;;;9.00;99.90;;;;;;5013253;28;20094;-66
2024/01/25 05:50:19;;;;;;;29.67;4.88;;;9.00;99.90;;;;;;5013142;28;20026;-66
2024/01/25 05:52:45;;;;;;;31.10;4.68;;;9.00;99.90;;;;;;5013959;28;20045;-66
2024/01/25 05:55:11;;;;;;;24.65;4.22;;;8.90;99.90;;;;;;5014024;28;20022;-67
2024/01/25 05:57:37;;;;;;;29.08;4.78;;;9.00;99.90;;;;;;5013100;28;20109;-66
2024/01/25 06:00:05;;;;;;;22.23;3.85;;;9.00;99.90;;;;;;5012791;28;20026;-66
2024/01/25 06:02:30;;;;;;;18.27;4.05;;;8.90;99.90;;;;;;5013623;28;20088;-66
2024/01/25 06:04:58;;;;;;;20.67;4.35;;;8.90;99.90;;;;;;5013388;28;20031;-66
2024/01/25 06:07:24;;;;;;;17.10;3.88;;;8.80;99.90;;;;;;5012891;28;20059;-66
2024/01/25 06:09:50;;;;;;;24.85;3.25;;;8.90;99.90;;;;;;5015557;28;20112;-66
2024/01/25 06:12:15;;;;;;;20.10;4.22;;;8.90;99.90;;;;;;5016650;28;20058;-66
2024/01/25 06:14:41;;;;;;;25.17;4.38;;;8.80;99.90;;;;;;5016973;28;20019;-68
2024/01/25 06:17:06;;;;;;;26.67;5.72;;;8.90;99.90;;;;;;5016543;28;20041;-66
2024/01/25 06:19:34;;;;;;;20.30;4.10;;;8.90;99.90;;;;;;5017362;28;20019;-66
2024/01/25 06:21:59;;;;;;;24.60;5.10;;;8.90;99.90;;;;;;5016391;28;20015;-66
2024/01/25 06:24:25;;;;;;;24.65;4.53;;;8.80;99.90;;;;;;5016414;28;20114;-66
2024/01/25 06:26:50;;;;;;;21.42;3.97;;;8.60;99.90;;;;;;5016461;28;20028;-66
2024/01/25 06:29:16;;;;;;;19.08;4.47;;;8.60;99.90;;;;;;5017273;28;20030;-66
2024/01/25 06:31:43;;;;;;;22.10;4.03;;;8.70;99.90;;;;;;5016690;28;20030;-66
2024/01/25 06:34:09;;;;;;;21.83;3.10;;;8.90;99.90;;;;;;5016993;28;20025;-66
2024/01/25 06:36:34;;;;;;;25.83;4.35;;;8.90;99.90;;;;;;5016876;28;20019;-66
2024/01/25 06:39:00;;;;;;;16.67;3.50;;;8.90;99.90;;;;;;5016238;28;20022;-67
2024/01/25 06:41:25;;;;;;;18.50;3.38;;;9.00;99.90;;;;;;5016109;28;20116;-66
2024/01/25 06:43:51;;;;;;;27.80;4.65;;;9.10;99.90;;;;;;5015961;28;20165;-66
2024/01/25 06:46:16;;;;;;;21.60;4.28;;;9.10;99.90;;;;;;5015952;28;20022;-66
2024/01/25 06:48:42;;;;;;;24.15;3.50;;;8.90;99.90;;;;;;5016425;28;20057;-66
2024/01/25 06:51:07;;;;;;;25.42;3.72;;;8.70;99.90;;;;;;5016834;28;20033;-66
2024/01/25 06:53:33;;;;;;;21.70;3.85;;;8.50;99.90;;;;;;5016152;28;20015;-66
2024/01/25 06:55:59;;;;;;;10.90;2.88;;;8.50;99.90;;;;;;5015822;28;20019;-66
2024/01/25 06:58:24;;;;;;;19.33;3.70;;;8.50;99.90;;;;;;5015721;28;20037;-66
2024/01/25 07:00:50;;;;;;;21.38;4.82;;;8.40;99.90;;;;;;5015942;28;20035;-66
2024/01/25 07:03:15;;;;;;;20.83;3.58;;;8.20;99.90;;;;;;5016614;28;20030;-66
2024/01/25 07:05:41;;;;;;;33.67;5.22;;;8.30;99.90;;;;;;5016665;28;20034;-66
2024/01/25 07:08:12;;;;;;;19.02;3.35;;;8.20;99.90;;;;;;5015554;28;20026;-66
2024/01/25 07:10:38;;;;;;;25.38;5.07;;;8.20;99.90;;;;;;5016675;28;20031;-66
2024/01/25 07:13:03;;;;;;;20.73;4.25;;;8.20;99.90;;;;;;5015971;28;20072;-66
2024/01/25 07:15:29;;;;;;;24.20;4.57;;;8.30;99.90;;;;;;5015545;28;20054;-67
2024/01/25 07:17:54;;;;;;;18.30;4.10;;;8.20;99.90;;;;;;5015594;28;20034;-66
2024/01/25 07:20:20;;;;;;;19.33;3.35;;;8.20;99.90;;;;;;5015193;28;20030;-68
2024/01/25 07:22:45;;;;;;;14.38;3.47;;;8.30;99.90;;;;;;5015737;28;20069;-66
2024/01/25 07:25:11;;;;;;;22.52;4.03;;;8.20;99.90;;;;;;5016328;28;20122;-66
2024/01/25 07:27:36;;;;;;;31.63;5.20;;;8.10;99.90;;;;;;5015253;28;20019;-66
2024/01/25 07:30:02;;;;;;;19.23;4.78;;;7.90;99.90;;;;;;5016084;28;20029;-66
2024/01/25 07:32:28;;;;;;;23.77;4.82;;;7.70;99.90;;;;;;5016150;28;20019;-66
2024/01/25 07:34:54;;;;;;;32.30;4.30;;;7.60;99.90;;;;;;5015830;28;20022;-67
2024/01/25 07:37:19;;;;;;;22.48;4.88;;;7.80;99.90;;;;;;5015038;28;20090;-67
2024/01/25 07:39:45;;;;;;;16.00;4.20;;;7.90;99.90;;;;;;5015901;28;20050;-66
2024/01/25 07:42:12;;;;;;;25.35;4.45;;;7.90;99.90;;;;;;5015247;28;20025;-66
2024/01/25 07:44:38;;;;;;;24.88;6.43;;;7.70;99.90;;;;;;5015070;28;20023;-66
2024/01/25 07:47:03;;;;;;;18.90;5.93;;;7.70;99.90;;;;;;5015245;28;20053;-66
2024/01/25 07:49:29;;;;;;;23.65;5.65;;;7.80;99.90;;;;;;5014873;28;20022;-66
2024/01/25 07:51:58;;;;;;;25.50;5.30;;;7.90;99.90;;;;;;5015486;28;20064;-66
2024/01/25 07:54:24;;;;;;;29.02;6.40;;;8.10;99.90;;;;;;5015210;28;20031;-66
2024/01/25 07:56:50;;;;;;;21.38;4.82;;;8.00;99.90;;;;;;5014559;28;20022;-66
2024/01/25 07:59:15;;;;;;;26.00;5.70;;;8.00;99.90;;;;;;5015814;28;20048;-66
2024/01/25 08:01:41;;;;;;;19.70;5.45;;;8.00;99.90;;;;;;5015345;28;20030;-66
2024/01/25 08:04:06;;;;;;;23.65;4.85;;;8.00;99.90;;;;;;5015121;28;20057;-66
2024/01/25 08:06:32;;;;;;;25.27;4.95;;;7.90;99.90;;;;;;5014491;28;20033;-66
2024/01/25 08:08:57;;;;;;;21.42;4.13;;;8.00;99.90;;;;;;5014442;28;20030;-66
2024/01/25 08:11:24;;;;;;;26.75;5.18;;;8.10;99.90;;;;;;5015073;28;20026;-66
2024/01/25 08:13:49;;;;;;;24.70;4.90;;;8.30;99.90;;;;;;5014585;28;20027;-67
2024/01/25 08:16:19;;;;;;;24.85;6.13;;;8.40;99.90;;;;;;5014227;28;20030;-67
2024/01/25 08:18:45;;;;;;;18.95;4.55;;;8.50;99.90;;;;;;5014687;28;20030;-67
2024/01/25 08:21:12;;;;;;;20.15;4.40;;;8.60;99.90;;;;;;5014437;28;20022;-67
2024/01/25 08:23:38;;;;;;;37.30;6.55;;;8.70;99.90;;;;;;5014617;28;20169;-67
2024/01/25 08:26:04;;;;;;;19.85;5.25;;;8.80;99.90;;;;;;5014448;28;20057;-66
2024/01/25 08:28:29;;;;;;;25.08;4.78;;;8.80;99.90;;;;;;5014815;28;20104;-66
2024/01/25 08:30:55;;;;;;;23.05;4.68;;;8.80;99.90;;;;;;5014468;28;20045;-66
2024/01/25 08:33:20;;;;;;;27.92;4.22;;;8.80;99.90;;;;;;5013760;28;20018;-66
2024/01/25 08:35:46;;;;;;;26.35;6.07;;;8.80;99.90;;;;;;5014767;28;20037;-65
2024/01/25 08:38:12;;;;;;;24.95;4.63;;;8.80;99.90;;;;;;5014217;28;20022;-66
2024/01/25 08:40:37;;;;;;;28.63;5.15;;;8.90;99.90;;;;;;5014321;28;20109;-65
2024/01/25 08:43:04;;;;;;;29.02;5.78;;;8.90;99.90;;;;;;5013819;28;20022;-66
2024/01/25 08:45:30;;;;;;;26.20;6.15;;;8.90;99.90;;;;;;5013861;28;20030;-65
2024/01/25 08:47:56;;;;;;;37.15;5.00;;;8.90;99.90;;;;;;5014057;28;20032;-66
2024/01/25 08:50:22;;;;;;;26.20;5.20;;;8.90;99.90;;;;;;5013601;28;20030;-65
2024/01/25 08:52:48;;;;;;;19.98;5.40;;;8.90;99.90;;;;;;5013806;28;20032;-65
2024/01/25 08:55:14;;;;;;;20.05;4.75;;;8.90;99.90;;;;;;5014624;28;20050;-66
2024/01/25 08:57:40;;;;;;;22.83;4.95;;;8.90;99.90;;;;;;5013382;28;20019;-66
2024/01/25 09:00:13;;;;;;;27.58;5.93;;;9.00;99.90;;;;;;5013303;28;20152;-65
2024/01/25 09:02:38;;;;;;;28.45;5.65;;;9.00;99.90;;;;;;5013514;28;20038;-66
2024/01/25 09:05:08;;;;;;;30.77;4.85;;;9.00;99.90;;;;;;4997978;28;20023;-66
2024/01/25 09:07:34;;;;;;;22.65;5.00;;;9.00;99.90;;;;;;4997868;28;20022;-65
2024/01/25 09:10:00;;;;;;;20.05;4.43;;;9.10;99.90;;;;;;5013213;28;20049;-65
2024/01/25 09:12:25;;;;;;;27.50;5.13;;;9.10;99.90;;;;;;4997944;28;20022;-64
2024/01/25 09:14:51;;;;;;;30.38;4.78;;;9.10;99.90;;;;;;5013692;28;20023;-65
2024/01/25 09:17:21;;;;;;;30.33;5.15;;;9.20;99.90;;;;;;4996744;28;20041;-66
2024/01/25 09:19:48;;;;;;;24.30;5.03;;;9.20;99.90;;;;;;4997793;28;20053;-66
2024/01/25 09:22:16;;;;;;;19.48;4.43;;;9.30;99.90;;;;;;5013796;28;20073;-66
2024/01/25 09:24:42;;;;;;;20.50;4.68;;;9.30;99.90;;;;;;4997837;28;20054;-65
2024/01/25 09:27:07;;;;;;;27.25;4.43;;;9.30;99.90;;;;;;4997683;28;20031;-65
2024/01/25 09:29:33;;;;;;;22.85;4.88;;;9.30;99.90;;;;;;5013038;28;20018;-66
2024/01/25 09:31:59;;;;;;;15.48;5.03;;;9.40;99.90;;;;;;4997545;28;20029;-65
2024/01/25 09:34:25;;;;;;;18.38;4.85;;;9.40;99.90;;;;;;5012932;28;20014;-66
2024/01/25 09:36:51;;;;;;;33.67;7.13;;;9.50;99.90;;;;;;4997447;28;20018;-66
2024/01/25 09:39:17;;;;;;;25.33;6.57;;;9.50;99.90;;;;;;4997563;28;20038;-66
2024/01/25 09:41:43;;;;;;;26.30;7.72;;;9.50;99.90;;;;;;5012928;28;20034;-66
2024/01/25 09:44:09;;;;;;;34.20;7.10;;;9.50;99.90;;;;;;4999875;28;20066;-65
2024/01/25 09:46:35;;;;;;;23.40;4.25;;;9.50;99.90;;;;;;5001491;28;20027;-66
2024/01/25 09:49:02;;;;;;;27.33;4.78;;;9.40;99.90;;;;;;5017026;28;20070;-66
2024/01/25 09:51:35;;;;;;;26.63;4.53;;;9.50;99.90;;;;;;5001551;28;20026;-66
2024/01/25 09:54:01;;;;;;;16.63;4.93;;;9.50;99.90;;;;;;5000394;28;20146;-66
2024/01/25 09:56:31;;;;;;;29.85;6.25;;;9.40;99.90;;;;;;5017187;28;20027;-65
2024/01/25 09:58:58;;;;;;;15.45;5.57;;;9.30;99.90;;;;;;5001228;28;20117;-66
2024/01/25 10:01:24;;;;;;;18.80;3.85;;;9.30;99.90;;;;;;5001356;28;20076;-66
2024/01/25 10:03:49;;;;;;;18.95;3.83;;;9.30;99.90;;;;;;5017062;28;20046;-66
2024/01/25 10:06:16;;;;;;;19.77;3.90;;;9.40;99.90;;;;;;5001171;28;20061;-66
2024/01/25 10:08:42;;;;;;;33.13;5.43;;;9.40;99.90;;;;;;5001395;28;20109;-65
2024/01/25 10:11:08;;;;;;;19.60;4.50;;;9.40;99.90;;;;;;5000156;28;20031;-65
2024/01/25 10:13:44;;;;;;;24.42;4.93;;;9.50;99.90;;;;;;5000226;28;20090;-65
2024/01/25 10:16:14;;;;;;;24.23;5.22;;;9.60;99.90;;;;;;5001354;28;20061;-66
2024/01/25 10:18:41;;;;;;;18.52;4.47;;;9.50;99.90;;;;;;5016338;28;20023;-65
2024/01/25 10:21:07;;;;;;;24.05;5.82;;;9.50;99.90;;;;;;5000998;28;20068;-65
2024/01/25 10:23:32;;;;;;;26.92;5.68;;;9.50;99.90;;;;;;5016862;28;20033;-65
2024/01/25 10:25:58;;;;;;;33.20;5.30;;;9.50;99.90;;;;;;5016601;28;20165;-65
2024/01/25 10:28:25;;;;;;;28.83;5.70;;;9.50;99.90;;;;;;5016568;28;20030;-65
2024/01/25 10:30:51;;;;;;;25.50;6.80;;;9.60;99.90;;;;;;5016228;28;20104;-65
2024/01/25 10:33:17;;;;;;;22.58;5.05;;;9.70;99.90;;;;;;5016645;28;20027;-65
2024/01/25 10:35:49;;;;;;;29.10;6.63;;;9.70;99.90;;;;;;5000713;28;20057;-65
2024/01/25 10:38:17;;;;;;;33.10;6.13;;;9.70;99.90;;;;;;4999724;28;20022;-65
2024/01/25 10:40:43;;;;;;;28.40;4.90;;;9.70;99.90;;;;;;4999740;28;20026;-66
2024/01/25 10:43:09;;;;;;;26.88;5.03;;;9.80;99.90;;;;;;5016261;28;20037;-65
2024/01/25 10:45:35;;;;;;;28.08;5.63;;;9.90;99.90;;;;;;5016262;28;20023;-65
2024/01/25 10:48:02;;;;;;;23.88;5.70;;;10.00;99.90;;;;;;5016272;28;20022;-65
2024/01/25 10:50:27;;;;;;;30.15;5.55;;;10.00;99.90;;;;;;5016074;28;20030;-65
2024/01/25 10:52:53;;;;;;;23.38;4.43;;;10.00;99.90;;;;;;5000580;28;20019;-65
2024/01/25 10:55:19;;;;;;;25.33;5.63;;;10.00;99.90;;;;;;4999796;28;20026;-65
2024/01/25 10:57:45;;;;;;;20.23;5.60;;;9.90;99.90;;;;;;5000259;28;20026;-65
2024/01/25 11:00:14;;;;;;;34.58;4.38;;;9.90;99.90;;;;;;5000415;28;20029;-65
2024/01/25 11:02:40;;;;;;;31.00;6.07;;;10.00;99.90;;;;;;5000225;28;20026;-65
2024/01/25 11:05:14;;;;;;;21.08;4.43;;;10.00;99.90;;;;;;5000213;28;20019;-65
2024/01/25 11:07:50;;;;;;;32.92;5.32;;;10.10;99.90;;;;;;5015600;28;20030;-65
2024/01/25 11:10:21;;;;;;;17.27;4.85;;;10.20;99.90;;;;;;5015643;28;20029;-65
2024/01/25 11:13:05;;;;;;;23.60;4.23;;;10.30;99.90;;;;;;5016494;28;20100;-65
2024/01/25 11:15:35;;;;;;;25.65;5.05;;;10.30;99.90;;;;;;5000252;28;20023;-65
2024/01/25 11:18:08;;;;;;;26.75;6.07;;;10.30;99.90;;;;;;4999442;28;20039;-65
2024/01/25 11:20:34;;;;;;;22.27;5.07;;;10.20;99.90;;;;;;5015490;28;20036;-65
2024/01/25 11:23:02;;;;;;;29.25;5.78;;;10.20;99.90;;;;;;5015736;28;20033;-66
2024/01/25 11:25:30;;;;;;;22.95;4.45;;;10.30;99.90;;;;;;5000084;28;20122;-65
2024/01/25 11:27:55;;;;;;;21.08;4.72;;;10.40;99.90;;;;;;4999811;28;20027;-65
2024/01/25 11:30:21;;;;;;;23.10;4.40;;;10.50;99.90;;;;;;4999805;28;20033;-66
2024/01/25 11:32:47;;;;;;;22.23;4.03;;;10.60;99.90;;;;;;5015122;28;20058;-65
2024/01/25 11:35:16;;;;;;;23.48;6.75;;;10.60;99.90;;;;;;4999684;28;20022;-65
2024/01/25 11:37:45;;;;;;;22.55;4.35;;;10.60;99.90;;;;;;5015080;28;20023;-65
2024/01/25 11:40:12;;;;;;;28.27;4.20;;;10.60;99.90;;;;;;5015080;28;20026;-65
2024/01/25 11:42:38;;;;;;;26.15;5.65;;;10.60;99.90;;;;;;5015119;28;20030;-65
2024/01/25 11:45:07;;;;;;;17.83;3.55;;;10.60;99.90;;;;;;4999788;28;20034;-65
2024/01/25 11:47:33;;;;;;;15.90;3.92;;;10.60;99.90;;;;;;4999380;28;20031;-65
2024/01/25 11:49:58;;;;;;;16.20;4.35;;;10.70;99.90;;;;;;5015524;28;20077;-65
2024/01/25 11:52:26;;;;;;;20.40;3.95;;;10.70;99.90;;;;;;4999597;28;20050;-65
2024/01/25 11:54:51;;;;;;;17.90;4.65;;;10.70;99.90;;;;;;4999640;28;20022;-65
2024/01/25 11:57:18;;;;;;;21.30;4.10;;;10.80;99.90;;;;;;5014734;28;20054;-65
2024/01/25 11:59:45;;;;;;;22.88;3.75;;;10.70;99.90;;;;;;5014556;28;20113;-65
2024/01/25 12:02:15;;;;;;;20.10;4.10;;;10.70;99.90;;;;;;4999286;28;20022;-65
2024/01/25 12:04:40;;;;;;;22.73;5.05;;;10.70;99.90;;;;;;5014617;28;20022;-65
2024/01/25 12:07:07;;;;;;;24.83;4.20;;;10.50;99.90;;;;;;4997532;28;20112;-65
2024/01/25 12:09:33;;;;;;;24.73;4.65;;;10.50;99.90;;;;;;5014509;28;20029;-65
2024/01/25 12:12:00;;;;;;;22.83;3.70;;;10.60;99.90;;;;;;5014376;28;20026;-65
2024/01/25 12:14:27;;;;;;;18.73;3.90;;;10.60;99.90;;;;;;5014684;28;20018;-65
2024/01/25 12:16:55;;;;;;;24.13;4.35;;;10.60;99.90;;;;;;5014106;28;20054;-65
2024/01/25 12:19:21;;;;;;;22.77;4.35;;;10.50;99.90;;;;;;4998855;28;20026;-65
2024/01/25 12:21:47;;;;;;;13.85;4.25;;;10.50;99.90;;;;;;5014237;28;20112;-65
2024/01/25 12:24:13;;;;;;;24.20;4.97;;;10.60;99.90;;;;;;4998829;28;20026;-65
2024/01/25 12:26:38;;;;;;;13.05;3.63;;;10.60;99.90;;;;;;4998938;28;20027;-66
2024/01/25 12:29:04;;;;;;;24.88;4.88;;;10.60;99.90;;;;;;4998079;28;20026;-65
2024/01/25 12:31:31;;;;;;;27.20;3.85;;;10.60;99.90;;;;;;4998839;28;20105;-65
2024/01/25 12:33:57;;;;;;;32.63;4.82;;;10.70;99.90;;;;;;5014872;28;20022;-65
2024/01/25 12:36:23;;;;;;;21.75;3.38;;;10.70;99.90;;;;;;5013944;28;20019;-66
2024/01/25 12:38:48;;;;;;;15.25;4.45;;;10.70;99.90;;;;;;4998069;28;20018;-65
2024/01/25 12:41:14;;;;;;;21.42;4.00;;;10.80;99.90;;;;;;4998456;28;20026;-65